Time;durP1;ratioP1;P1;durP2;ratioP2;P2;SDS_P1;SDS_P2;PMS_P1;PMS_P2;Temp;Humidity;BMP_temperature;BMP_pressure;BME280_temperature;BME280_humidity;BME280_pressure;Samples;Min_cycle;Max_cycle;Signal;HPM_P1;HPM_P2
2021/08/07 00:00:49;;;;;;;11.87;5.00;;;15.90;99.90;;;;;;5120017;27;20232;-68
2021/08/07 00:03:18;;;;;;;9.33;4.90;;;15.80;99.90;;;;;;5114391;28;20198;-68
2021/08/07 00:05:47;;;;;;;10.70;5.23;;;15.80;99.90;;;;;;5112227;27;20211;-68
2021/08/07 00:08:16;;;;;;;10.43;5.23;;;15.80;99.90;;;;;;5113921;27;20230;-68
2021/08/07 00:10:46;;;;;;;9.33;5.10;;;15.90;99.90;;;;;;5117639;27;20264;-68
2021/08/07 00:13:14;;;;;;;7.67;5.63;;;15.90;99.90;;;;;;5107195;28;20187;-68
2021/08/07 00:15:42;;;;;;;9.53;5.43;;;15.90;99.90;;;;;;5116391;27;20225;-68
2021/08/07 00:18:11;;;;;;;11.97;5.40;;;15.90;99.90;;;;;;5107015;28;20183;-68
2021/08/07 00:20:39;;;;;;;10.30;5.37;;;15.90;99.90;;;;;;5132380;27;20227;-69
2021/08/07 00:23:07;;;;;;;12.03;5.17;;;15.90;99.90;;;;;;5105150;28;20182;-68
2021/08/07 00:25:37;;;;;;;9.47;5.57;;;15.90;99.90;;;;;;5116987;27;20180;-68
2021/08/07 00:28:05;;;;;;;11.67;5.47;;;16.00;99.90;;;;;;5104577;28;20199;-68
2021/08/07 00:30:33;;;;;;;11.57;5.63;;;16.00;99.90;;;;;;5098559;28;20280;-68
2021/08/07 00:33:02;;;;;;;13.00;5.37;;;15.90;99.90;;;;;;5115058;27;20240;-68
2021/08/07 00:35:30;;;;;;;9.03;5.27;;;15.90;99.90;;;;;;5117368;27;20183;-69
2021/08/07 00:37:58;;;;;;;11.27;5.57;;;15.90;99.90;;;;;;5110128;28;20176;-68
2021/08/07 00:40:27;;;;;;;11.30;4.87;;;15.90;99.90;;;;;;5111058;27;20331;-69
2021/08/07 00:42:57;;;;;;;11.83;5.93;;;16.00;99.90;;;;;;5112243;27;20190;-69
2021/08/07 00:45:25;;;;;;;8.90;4.67;;;16.10;99.90;;;;;;5112503;27;20220;-68
2021/08/07 00:47:54;;;;;;;8.27;4.97;;;16.10;99.90;;;;;;5106057;28;20456;-69
2021/08/07 00:50:22;;;;;;;7.40;4.53;;;16.10;99.90;;;;;;5115790;27;20179;-69
2021/08/07 00:52:50;;;;;;;7.33;4.97;;;16.10;99.90;;;;;;5118856;27;20313;-68
2021/08/07 00:55:18;;;;;;;15.17;5.20;;;16.00;99.90;;;;;;5116757;27;20189;-68
2021/08/07 00:57:47;;;;;;;9.10;5.13;;;16.10;99.90;;;;;;5115618;27;20184;-68
2021/08/07 01:00:17;;;;;;;7.43;4.50;;;16.10;99.90;;;;;;5132604;27;20203;-69
2021/08/07 01:02:53;;;;;;;6.87;4.10;;;16.10;99.90;;;;;;5107367;28;20449;-69
2021/08/07 01:05:31;;;;;;;10.63;4.50;;;16.10;99.90;;;;;;5115511;27;20179;-68
2021/08/07 01:08:06;;;;;;;16.33;4.37;;;16.10;99.90;;;;;;5118694;27;20182;-69
2021/08/07 01:10:41;;;;;;;7.57;4.43;;;16.10;99.90;;;;;;5113036;27;20182;-68
2021/08/07 01:13:16;;;;;;;7.23;4.30;;;16.10;99.90;;;;;;5114914;28;20346;-68
2021/08/07 01:15:50;;;;;;;11.93;4.00;;;16.10;99.90;;;;;;5110219;28;20189;-69
2021/08/07 01:18:21;;;;;;;7.33;4.13;;;16.10;99.90;;;;;;5121912;27;20175;-68
2021/08/07 01:20:52;;;;;;;7.50;3.90;;;16.00;99.90;;;;;;5109363;28;20203;-69
2021/08/07 01:23:33;;;;;;;8.97;4.20;;;16.00;99.90;;;;;;5113711;27;20178;-68
2021/08/07 01:26:07;;;;;;;4.93;3.97;;;16.00;99.90;;;;;;5104972;28;20179;-68
2021/08/07 01:28:40;;;;;;;18.67;4.80;;;16.00;99.90;;;;;;5105529;28;20203;-69
2021/08/07 01:31:11;;;;;;;10.37;3.47;;;16.00;99.90;;;;;;5108511;27;20179;-68
2021/08/07 01:33:41;;;;;;;10.20;3.70;;;16.00;99.90;;;;;;5108240;28;20223;-68
2021/08/07 01:36:10;;;;;;;11.23;3.93;;;16.00;99.90;;;;;;5104204;28;20330;-68
2021/08/07 01:38:39;;;;;;;4.23;3.57;;;16.00;99.90;;;;;;5120844;27;20238;-69
2021/08/07 01:41:15;;;;;;;6.90;3.90;;;16.00;99.90;;;;;;5120155;28;20189;-69
2021/08/07 01:43:44;;;;;;;12.73;4.27;;;15.90;99.90;;;;;;5107665;27;20174;-68
2021/08/07 01:46:14;;;;;;;5.90;3.60;;;15.90;99.90;;;;;;5114853;27;20179;-69
2021/08/07 01:48:48;;;;;;;5.47;3.63;;;15.80;99.90;;;;;;5106045;28;20183;-69
2021/08/07 01:51:21;;;;;;;7.33;3.83;;;15.80;99.90;;;;;;5111353;27;20209;-68
2021/08/07 01:53:50;;;;;;;12.10;4.07;;;15.90;99.90;;;;;;5111012;27;20368;-69
2021/08/07 01:56:25;;;;;;;4.10;3.50;;;15.90;99.90;;;;;;5123115;27;20191;-69
2021/08/07 01:59:02;;;;;;;11.77;3.70;;;15.90;99.90;;;;;;5107068;27;20371;-68
2021/08/07 02:01:32;;;;;;;4.87;3.47;;;16.00;99.90;;;;;;5114122;27;20179;-69
2021/08/07 02:04:01;;;;;;;9.93;3.87;;;15.90;99.90;;;;;;5109051;27;20172;-68
2021/08/07 02:06:31;;;;;;;8.17;3.23;;;15.90;99.90;;;;;;5107864;27;20195;-69
2021/08/07 02:09:01;;;;;;;5.10;3.60;;;15.90;99.90;;;;;;5112449;28;20188;-68
2021/08/07 02:11:29;;;;;;;7.20;3.63;;;15.80;99.90;;;;;;5116536;27;20182;-69
2021/08/07 02:14:00;;;;;;;7.17;3.67;;;15.80;99.90;;;;;;5112481;28;20229;-69
2021/08/07 02:16:35;;;;;;;9.53;3.77;;;15.80;99.90;;;;;;5110945;28;20256;-69
2021/08/07 02:19:04;;;;;;;7.90;3.50;;;15.80;99.90;;;;;;5111921;27;20197;-68
2021/08/07 02:21:34;;;;;;;8.17;3.80;;;15.70;99.90;;;;;;5118049;27;20184;-69
2021/08/07 02:24:02;;;;;;;8.23;3.60;;;15.80;99.90;;;;;;5117532;27;20177;-70
2021/08/07 02:26:31;;;;;;;7.23;3.90;;;15.80;99.90;;;;;;5118016;27;20170;-70
2021/08/07 02:29:01;;;;;;;9.20;3.90;;;15.80;99.90;;;;;;5106473;28;20225;-69
2021/08/07 02:31:29;;;;;;;8.97;3.90;;;15.80;99.90;;;;;;5110250;27;20308;-69
2021/08/07 02:34:00;;;;;;;9.97;4.00;;;15.70;99.90;;;;;;5112382;28;20213;-69
2021/08/07 02:36:30;;;;;;;7.40;3.77;;;15.70;99.90;;;;;;5115519;27;20182;-69
2021/08/07 02:38:59;;;;;;;7.17;4.13;;;15.60;99.90;;;;;;5120268;27;20178;-69
2021/08/07 02:41:28;;;;;;;9.43;4.53;;;15.70;99.90;;;;;;5102958;28;20190;-70
2021/08/07 02:43:57;;;;;;;8.13;3.70;;;15.70;99.90;;;;;;5109170;28;20171;-69
2021/08/07 02:46:28;;;;;;;12.43;4.10;;;15.70;99.90;;;;;;5115338;27;20358;-69
2021/08/07 02:48:58;;;;;;;9.70;3.73;;;15.70;99.90;;;;;;5116667;27;20179;-69
2021/08/07 02:51:27;;;;;;;7.57;3.90;;;15.60;99.90;;;;;;5111693;28;20177;-69
2021/08/07 02:53:56;;;;;;;9.10;4.00;;;15.60;99.90;;;;;;5109136;27;20198;-69
2021/08/07 02:56:24;;;;;;;9.70;4.37;;;15.60;99.90;;;;;;5124509;27;20179;-69
2021/08/07 02:58:52;;;;;;;10.97;4.10;;;15.60;99.90;;;;;;5112208;28;20246;-69
2021/08/07 03:01:20;;;;;;;6.37;3.80;;;15.60;99.90;;;;;;5107222;28;20180;-69
2021/08/07 03:03:50;;;;;;;12.30;3.97;;;15.60;99.90;;;;;;5112501;27;20183;-69
2021/08/07 03:06:19;;;;;;;8.30;4.03;;;15.60;99.90;;;;;;5112572;28;20194;-69
2021/08/07 03:08:47;;;;;;;4.20;3.50;;;15.60;99.90;;;;;;5118528;27;20176;-68
2021/08/07 03:11:15;;;;;;;6.63;3.40;;;15.60;99.90;;;;;;5120016;27;20398;-69
2021/08/07 03:13:44;;;;;;;7.10;3.53;;;15.60;99.90;;;;;;5105967;28;20206;-69
2021/08/07 03:16:12;;;;;;;6.70;3.20;;;15.50;99.90;;;;;;5091804;28;20220;-69
2021/08/07 03:18:40;;;;;;;6.60;3.33;;;15.40;99.90;;;;;;5119360;27;20184;-69
2021/08/07 03:21:10;;;;;;;10.80;3.43;;;15.40;99.90;;;;;;5107785;28;20171;-65
2021/08/07 03:23:38;;;;;;;10.10;3.43;;;15.40;99.90;;;;;;5118666;28;20241;-69
2021/08/07 03:26:06;;;;;;;7.63;3.77;;;15.40;99.90;;;;;;5109556;28;20438;-69
2021/08/07 03:28:35;;;;;;;9.53;3.73;;;15.40;99.90;;;;;;5106345;28;20187;-69
2021/08/07 03:31:03;;;;;;;13.73;3.57;;;15.40;99.90;;;;;;5114025;28;20183;-68
2021/08/07 03:33:32;;;;;;;6.30;3.33;;;15.40;99.90;;;;;;5118673;28;20195;-69
2021/08/07 03:36:00;;;;;;;5.30;3.07;;;15.30;99.90;;;;;;5108773;28;20197;-69
2021/08/07 03:38:29;;;;;;;7.50;3.33;;;15.30;99.90;;;;;;5122463;28;20326;-68
2021/08/07 03:40:58;;;;;;;6.17;3.20;;;15.30;99.90;;;;;;5106206;28;20181;-68
2021/08/07 03:43:26;;;;;;;8.40;3.03;;;15.30;99.90;;;;;;5111373;28;20171;-69
2021/08/07 03:45:54;;;;;;;6.37;2.97;;;15.30;99.90;;;;;;5105923;28;20203;-69
2021/08/07 03:48:23;;;;;;;9.27;3.40;;;15.30;99.90;;;;;;5102333;28;20175;-69
2021/08/07 03:50:51;;;;;;;7.80;3.00;;;15.30;99.90;;;;;;5109352;28;20334;-69
2021/08/07 03:53:19;;;;;;;4.13;2.90;;;15.30;99.90;;;;;;5109041;28;20199;-69
2021/08/07 03:55:49;;;;;;;6.43;3.40;;;15.30;99.90;;;;;;5106983;28;20186;-69
2021/08/07 03:58:17;;;;;;;5.83;3.27;;;15.20;99.90;;;;;;5114947;28;20198;-68
2021/08/07 04:00:45;;;;;;;9.70;3.77;;;15.30;99.90;;;;;;5112978;28;20214;-69
2021/08/07 04:03:14;;;;;;;7.83;3.43;;;15.30;99.90;;;;;;5107537;28;20399;-69
2021/08/07 04:05:42;;;;;;;8.50;3.40;;;15.30;99.90;;;;;;5106577;28;20331;-69
2021/08/07 04:08:11;;;;;;;3.70;3.40;;;15.30;99.90;;;;;;5107174;28;20311;-69
2021/08/07 04:10:40;;;;;;;4.33;3.40;;;15.30;99.90;;;;;;5111191;28;20191;-69
2021/08/07 04:13:12;;;;;;;5.73;3.50;;;15.30;99.90;;;;;;5123558;28;20182;-65
2021/08/07 04:15:40;;;;;;;11.03;4.20;;;15.30;99.90;;;;;;5100988;28;20195;-69
2021/08/07 04:18:09;;;;;;;13.20;4.40;;;15.30;99.90;;;;;;5106972;28;20187;-69
2021/08/07 04:20:37;;;;;;;6.93;3.73;;;15.30;99.90;;;;;;5102017;28;20179;-69
2021/08/07 04:23:06;;;;;;;14.13;3.97;;;15.40;99.90;;;;;;5106208;28;20194;-69
2021/08/07 04:25:34;;;;;;;8.17;3.97;;;15.40;99.90;;;;;;5108575;28;20331;-69
2021/08/07 04:28:03;;;;;;;12.30;4.10;;;15.30;99.90;;;;;;5106479;28;20175;-69
2021/08/07 04:30:32;;;;;;;5.50;3.80;;;15.30;99.90;;;;;;5112578;28;20186;-69
2021/08/07 04:33:01;;;;;;;6.93;3.90;;;15.30;99.90;;;;;;5111793;28;20415;-68
2021/08/07 04:35:29;;;;;;;10.13;4.03;;;15.30;99.90;;;;;;5099078;28;20250;-68
2021/08/07 04:37:59;;;;;;;10.53;4.40;;;15.30;99.90;;;;;;5104153;28;20183;-69
2021/08/07 04:40:29;;;;;;;9.83;4.27;;;15.30;99.90;;;;;;5103570;28;20327;-69
2021/08/07 04:42:57;;;;;;;6.20;4.00;;;15.30;99.90;;;;;;5116500;27;20174;-69
2021/08/07 04:45:25;;;;;;;10.37;4.20;;;15.30;99.90;;;;;;5103918;28;20416;-69
2021/08/07 04:47:58;;;;;;;6.47;4.03;;;15.30;99.90;;;;;;5112406;28;20180;-70
2021/08/07 04:50:28;;;;;;;8.83;4.33;;;15.30;99.90;;;;;;5120679;27;20176;-69
2021/08/07 04:52:58;;;;;;;7.60;4.30;;;15.30;99.90;;;;;;5108429;28;20180;-70
2021/08/07 04:55:26;;;;;;;12.13;4.73;;;15.30;99.90;;;;;;5114304;28;20388;-69
2021/08/07 04:57:54;;;;;;;9.77;4.87;;;15.30;99.90;;;;;;5108597;27;20180;-69
2021/08/07 05:00:23;;;;;;;10.37;5.60;;;15.40;99.90;;;;;;5106859;28;20222;-69
2021/08/07 05:02:51;;;;;;;13.43;5.60;;;15.40;99.90;;;;;;5111395;28;20186;-69
2021/08/07 05:05:22;;;;;;;12.67;5.47;;;15.30;99.90;;;;;;5108780;28;20433;-69
2021/08/07 05:07:50;;;;;;;5.77;5.07;;;15.30;99.90;;;;;;5118434;28;20331;-69
2021/08/07 05:10:19;;;;;;;8.77;4.83;;;15.20;99.90;;;;;;5104320;28;20175;-69
2021/08/07 05:12:48;;;;;;;10.47;4.90;;;15.20;99.90;;;;;;5106257;27;20307;-70
2021/08/07 05:15:16;;;;;;;5.90;5.20;;;15.20;99.90;;;;;;5119153;28;20194;-67
2021/08/07 05:17:44;;;;;;;10.50;5.30;;;15.10;99.90;;;;;;5105880;28;20183;-70
2021/08/07 05:20:13;;;;;;;12.67;5.30;;;15.10;99.90;;;;;;5111844;28;20225;-70
2021/08/07 05:22:43;;;;;;;7.03;5.30;;;15.10;99.90;;;;;;5115111;28;20198;-70
2021/08/07 05:25:12;;;;;;;6.00;5.00;;;15.10;99.90;;;;;;5116484;28;20240;-71
2021/08/07 05:27:40;;;;;;;7.80;4.97;;;15.10;99.90;;;;;;5111505;27;20449;-71
2021/08/07 05:30:09;;;;;;;11.43;4.97;;;15.10;99.90;;;;;;5108707;28;20199;-70
2021/08/07 05:32:37;;;;;;;6.37;4.63;;;15.20;99.90;;;;;;5114501;28;20190;-71
2021/08/07 05:35:07;;;;;;;5.07;4.00;;;15.30;99.90;;;;;;5110230;28;20199;-69
2021/08/07 05:37:39;;;;;;;5.77;4.33;;;15.50;99.90;;;;;;5115335;28;20183;-70
2021/08/07 05:40:10;;;;;;;7.60;3.77;;;15.50;99.90;;;;;;5115070;27;20464;-69
2021/08/07 05:42:38;;;;;;;8.67;3.50;;;15.60;99.90;;;;;;5117560;27;20463;-68
2021/08/07 05:45:07;;;;;;;5.97;4.03;;;15.70;99.90;;;;;;5104318;28;20248;-69
2021/08/07 05:47:36;;;;;;;5.43;3.70;;;15.80;99.90;;;;;;5108309;28;20186;-69
2021/08/07 05:50:05;;;;;;;7.30;3.33;;;15.90;99.90;;;;;;5116067;28;20178;-69
2021/08/07 05:52:34;;;;;;;4.97;3.10;;;16.00;99.90;;;;;;5112240;28;20233;-69
2021/08/07 05:55:02;;;;;;;4.73;2.80;;;16.00;99.90;;;;;;5103279;28;20202;-69
2021/08/07 05:57:32;;;;;;;4.50;2.80;;;16.00;99.90;;;;;;5125416;27;20326;-68
2021/08/07 06:00:01;;;;;;;3.87;3.40;;;16.00;99.90;;;;;;5108002;28;20215;-68
2021/08/07 06:02:32;;;;;;;6.53;3.43;;;16.10;99.90;;;;;;5108495;28;20175;-68
2021/08/07 06:05:01;;;;;;;7.23;3.57;;;16.20;99.90;;;;;;5108616;28;20195;-68
2021/08/07 06:07:29;;;;;;;7.20;3.80;;;16.30;99.90;;;;;;5109275;28;20172;-68
2021/08/07 06:09:57;;;;;;;8.53;4.10;;;16.30;99.90;;;;;;5120698;28;20406;-69
2021/08/07 06:12:26;;;;;;;5.07;3.70;;;16.40;99.90;;;;;;5113885;28;20180;-68
2021/08/07 06:14:55;;;;;;;4.80;3.97;;;16.50;99.90;;;;;;5112563;28;20486;-67
2021/08/07 06:17:24;;;;;;;11.73;4.40;;;16.70;99.90;;;;;;5110961;28;20179;-69
2021/08/07 06:19:52;;;;;;;5.70;4.10;;;16.80;99.90;;;;;;5109495;28;20183;-69
2021/08/07 06:22:20;;;;;;;8.23;4.80;;;16.90;99.90;;;;;;5109155;28;20323;-68
2021/08/07 06:24:49;;;;;;;9.53;5.17;;;16.90;99.90;;;;;;5116569;28;20174;-68
2021/08/07 06:27:17;;;;;;;6.97;5.43;;;17.00;99.90;;;;;;5118186;28;20179;-69
2021/08/07 06:29:45;;;;;;;6.10;5.30;;;16.90;99.90;;;;;;5107565;28;20180;-68
2021/08/07 06:32:15;;;;;;;6.17;5.23;;;16.80;99.90;;;;;;5114785;28;20187;-69
2021/08/07 06:34:43;;;;;;;19.77;5.93;;;16.70;99.90;;;;;;5117655;27;20220;-68
2021/08/07 06:37:11;;;;;;;7.50;5.00;;;16.70;99.90;;;;;;5104896;28;20312;-68
2021/08/07 06:39:40;;;;;;;5.93;5.20;;;16.60;99.90;;;;;;5115415;27;20304;-68
2021/08/07 06:42:09;;;;;;;6.30;5.03;;;16.50;99.90;;;;;;5103472;28;20188;-68
2021/08/07 06:44:37;;;;;;;6.10;4.17;;;16.40;99.90;;;;;;5107632;28;20315;-68
2021/08/07 06:47:05;;;;;;;4.63;3.83;;;16.20;99.90;;;;;;5102396;28;20211;-68
2021/08/07 06:49:35;;;;;;;8.10;4.13;;;16.20;99.90;;;;;;5102330;28;20216;-68
2021/08/07 06:52:04;;;;;;;4.30;3.90;;;16.30;99.90;;;;;;5103411;28;20191;-68
2021/08/07 06:54:32;;;;;;;8.60;3.80;;;16.30;99.90;;;;;;5111047;27;20438;-68
2021/08/07 06:57:00;;;;;;;5.40;3.70;;;16.30;99.90;;;;;;5108989;28;20250;-69
2021/08/07 06:59:29;;;;;;;5.33;3.30;;;16.40;99.90;;;;;;5102690;28;20235;-68
2021/08/07 07:01:57;;;;;;;5.00;2.90;;;16.50;99.90;;;;;;5112500;28;20179;-68
2021/08/07 07:04:27;;;;;;;8.47;3.00;;;16.60;99.90;;;;;;5102321;28;20183;-68
2021/08/07 07:06:57;;;;;;;4.90;2.77;;;16.70;99.90;;;;;;5111967;28;20188;-68
2021/08/07 07:09:25;;;;;;;6.20;2.90;;;16.80;99.90;;;;;;5102319;28;20206;-68
2021/08/07 07:11:54;;;;;;;4.53;2.70;;;17.00;99.90;;;;;;5108374;28;20199;-69
2021/08/07 07:14:26;;;;;;;2.90;2.43;;;17.30;99.90;;;;;;5108940;28;20196;-68
2021/08/07 07:16:55;;;;;;;4.77;2.70;;;17.30;99.90;;;;;;5107186;28;20306;-69
2021/08/07 07:19:25;;;;;;;8.43;2.40;;;17.40;99.90;;;;;;5103825;28;20443;-68
2021/08/07 07:21:53;;;;;;;4.13;2.17;;;17.50;99.90;;;;;;5106121;28;20171;-69
2021/08/07 07:24:23;;;;;;;5.80;2.57;;;17.70;99.90;;;;;;5109287;28;20316;-68
2021/08/07 07:26:51;;;;;;;6.47;2.50;;;17.70;99.90;;;;;;5105414;28;20185;-68
2021/08/07 07:29:20;;;;;;;4.63;2.40;;;17.80;99.90;;;;;;5112080;28;20493;-68
2021/08/07 07:31:49;;;;;;;8.10;2.53;;;18.10;99.90;;;;;;5102411;28;20183;-69
2021/08/07 07:34:17;;;;;;;3.63;2.60;;;18.20;99.90;;;;;;5108649;28;20194;-69
2021/08/07 07:36:46;;;;;;;5.17;2.03;;;18.30;99.90;;;;;;5102960;28;20195;-69
2021/08/07 07:39:14;;;;;;;5.20;2.60;;;18.30;99.90;;;;;;5110999;28;20339;-69
2021/08/07 07:41:44;;;;;;;3.90;2.23;;;18.40;99.90;;;;;;5114316;28;20171;-68
2021/08/07 07:44:12;;;;;;;4.17;1.90;;;18.40;99.90;;;;;;5108675;28;20193;-68
2021/08/07 07:46:40;;;;;;;4.83;2.43;;;18.20;99.90;;;;;;5106078;28;20434;-69
2021/08/07 07:49:09;;;;;;;3.90;2.33;;;18.10;99.90;;;;;;5121586;28;20175;-68
2021/08/07 07:51:37;;;;;;;5.50;2.53;;;18.00;99.90;;;;;;5104762;28;20179;-69
2021/08/07 07:54:05;;;;;;;5.97;2.33;;;18.30;99.90;;;;;;5101618;28;20179;-69
2021/08/07 07:56:33;;;;;;;5.83;2.00;;;18.80;99.90;;;;;;5107952;28;20253;-69
2021/08/07 07:59:03;;;;;;;5.10;2.20;;;18.90;99.90;;;;;;5100399;28;20215;-69
2021/08/07 08:01:31;;;;;;;7.60;1.60;;;18.80;99.90;;;;;;5119900;28;20178;-69
2021/08/07 08:04:00;;;;;;;5.20;2.00;;;19.30;99.90;;;;;;5094406;28;20503;-70
2021/08/07 08:06:28;;;;;;;7.33;2.00;;;20.10;99.90;;;;;;5110172;28;20171;-69
2021/08/07 08:08:57;;;;;;;6.90;1.80;;;20.00;99.90;;;;;;5104879;28;20190;-69
2021/08/07 08:11:26;;;;;;;5.13;1.73;;;19.90;99.90;;;;;;5111426;28;20184;-69
2021/08/07 08:13:54;;;;;;;2.83;1.70;;;20.10;99.90;;;;;;5107466;28;20334;-70
2021/08/07 08:16:24;;;;;;;7.97;2.23;;;20.40;99.90;;;;;;5116843;27;20213;-69
2021/08/07 08:18:52;;;;;;;4.80;1.70;;;20.70;99.90;;;;;;5113467;28;20194;-69
2021/08/07 08:21:21;;;;;;;4.83;1.90;;;20.70;99.90;;;;;;5111083;28;20180;-69
2021/08/07 08:23:49;;;;;;;6.17;1.80;;;20.50;99.90;;;;;;5110516;28;20179;-70
2021/08/07 08:26:17;;;;;;;5.13;1.97;;;20.40;99.90;;;;;;5115773;28;20415;-70
2021/08/07 08:28:46;;;;;;;6.17;1.83;;;20.50;99.90;;;;;;5109917;28;20180;-70
2021/08/07 08:31:14;;;;;;;3.97;2.03;;;20.50;99.90;;;;;;5119369;27;20184;-69
2021/08/07 08:33:43;;;;;;;6.10;1.60;;;20.50;99.90;;;;;;5109328;28;20179;-70
2021/08/07 08:36:12;;;;;;;4.87;2.03;;;20.60;99.90;;;;;;5112816;28;20192;-69
2021/08/07 08:38:40;;;;;;;6.20;1.67;;;20.80;99.90;;;;;;5110060;28;20198;-70
2021/08/07 08:41:08;;;;;;;3.70;1.90;;;21.20;99.90;;;;;;5093815;28;20175;-70
2021/08/07 08:43:38;;;;;;;4.63;1.57;;;21.90;99.90;;;;;;5110949;28;20186;-70
2021/08/07 08:46:06;;;;;;;3.70;1.50;;;22.10;99.90;;;;;;5094251;28;20352;-70
2021/08/07 08:48:37;;;;;;;5.90;1.97;;;21.90;99.90;;;;;;5104643;28;20196;-69
2021/08/07 08:51:09;;;;;;;2.73;1.70;;;22.20;99.90;;;;;;5107684;28;20184;-70
2021/08/07 08:53:39;;;;;;;3.10;1.73;;;22.00;99.90;;;;;;5106589;28;20177;-70
2021/08/07 08:56:07;;;;;;;3.70;1.73;;;22.20;99.90;;;;;;5110579;28;20197;-70
2021/08/07 08:58:36;;;;;;;5.13;1.80;;;22.30;99.90;;;;;;5109438;28;20441;-71
2021/08/07 09:01:06;;;;;;;3.87;1.50;;;22.50;99.90;;;;;;5113152;28;20188;-70
2021/08/07 09:03:35;;;;;;;3.73;2.23;;;23.10;99.90;;;;;;5110421;28;20179;-70
2021/08/07 09:06:04;;;;;;;6.30;1.93;;;23.60;99.90;;;;;;5111486;28;20178;-69
2021/08/07 09:08:34;;;;;;;4.73;1.70;;;23.10;99.90;;;;;;5113220;28;20224;-70
2021/08/07 09:11:17;;;;;;;4.80;1.73;;;22.70;99.90;;;;;;5112265;28;20207;-69
2021/08/07 09:13:45;;;;;;;4.87;1.97;;;22.40;99.90;;;;;;5112875;28;20209;-69
2021/08/07 09:16:14;;;;;;;7.33;2.20;;;22.60;99.90;;;;;;5109133;28;20201;-67
2021/08/07 09:18:43;;;;;;;8.83;1.70;;;22.70;99.90;;;;;;5111079;28;20428;-68
2021/08/07 09:21:14;;;;;;;6.10;1.60;;;22.50;99.90;;;;;;5112694;27;20252;-67
2021/08/07 09:23:48;;;;;;;3.43;1.43;;;22.10;99.90;;;;;;5113283;28;20216;-68
2021/08/07 09:26:19;;;;;;;3.33;1.40;;;22.30;99.90;;;;;;5102719;28;20192;-68
2021/08/07 09:28:50;;;;;;;4.57;1.63;;;22.90;99.90;;;;;;5107607;28;20192;-68
2021/08/07 09:31:20;;;;;;;4.37;1.63;;;22.90;99.90;;;;;;5107755;28;20432;-67
2021/08/07 09:34:15;;;;;;;6.07;1.70;;;23.00;99.90;;;;;;5106092;28;20189;-68
2021/08/07 09:36:44;;;;;;;4.00;1.30;;;22.70;99.90;;;;;;5112689;28;20200;-68
2021/08/07 09:39:15;;;;;;;5.77;1.63;;;23.20;99.90;;;;;;5114723;28;20407;-68
2021/08/07 09:41:57;;;;;;;3.67;1.53;;;23.80;99.90;;;;;;5112767;28;20202;-68
2021/08/07 09:44:25;;;;;;;5.23;1.60;;;24.80;99.90;;;;;;5112976;27;20180;-67
2021/08/07 09:47:04;;;;;;;3.03;1.73;;;24.90;99.90;;;;;;5110084;28;20171;-68
2021/08/07 09:49:37;;;;;;;4.73;1.63;;;24.40;99.90;;;;;;5105290;27;20202;-68
2021/08/07 09:52:06;;;;;;;4.57;1.50;;;24.30;99.90;;;;;;5107209;28;20183;-68
2021/08/07 09:54:40;;;;;;;5.30;1.67;;;24.50;99.90;;;;;;5108064;28;20432;-66
2021/08/07 09:57:09;;;;;;;4.83;1.57;;;24.00;99.90;;;;;;5111250;28;20213;-67
2021/08/07 09:59:47;;;;;;;3.77;1.40;;;23.50;99.90;;;;;;5106931;28;20263;-67
2021/08/07 10:02:26;;;;;;;3.90;1.43;;;22.80;99.90;;;;;;5101679;28;20256;-67
2021/08/07 10:04:56;;;;;;;3.57;1.23;;;22.90;99.90;;;;;;5110870;28;20173;-68
2021/08/07 10:07:25;;;;;;;3.10;1.60;;;23.20;99.90;;;;;;5109058;28;20177;-67
2021/08/07 10:09:55;;;;;;;3.63;1.27;;;23.00;99.90;;;;;;5105623;28;20186;-67
2021/08/07 10:12:23;;;;;;;4.97;1.73;;;23.40;99.90;;;;;;5107701;28;20187;-67
2021/08/07 10:14:52;;;;;;;3.93;1.50;;;23.60;99.90;;;;;;5106254;28;20175;-68
2021/08/07 10:17:23;;;;;;;5.20;1.60;;;23.40;99.90;;;;;;5102437;28;20191;-66
2021/08/07 10:19:52;;;;;;;3.97;1.33;;;22.60;99.90;;;;;;5102762;28;20206;-67
2021/08/07 10:22:21;;;;;;;4.53;1.50;;;22.00;99.90;;;;;;5116065;28;20178;-67
2021/08/07 10:24:50;;;;;;;7.07;1.50;;;21.70;99.90;;;;;;5107863;28;20202;-68
2021/08/07 10:27:21;;;;;;;4.30;1.50;;;21.60;99.90;;;;;;5108947;28;20203;-67
2021/08/07 10:29:53;;;;;;;2.23;1.30;;;22.20;99.90;;;;;;5107430;28;20346;-68
2021/08/07 10:32:23;;;;;;;1.90;1.37;;;23.10;99.90;;;;;;5107233;28;20201;-66
2021/08/07 10:34:52;;;;;;;5.23;1.30;;;23.10;99.90;;;;;;5106366;28;20371;-67
2021/08/07 10:37:21;;;;;;;5.63;1.57;;;22.80;99.90;;;;;;5110411;28;20217;-68
2021/08/07 10:39:52;;;;;;;3.13;1.70;;;23.00;99.90;;;;;;5109230;28;20182;-67
2021/08/07 10:42:23;;;;;;;3.40;1.50;;;22.70;99.90;;;;;;5102580;28;20195;-67
2021/08/07 10:44:52;;;;;;;2.13;1.47;;;22.40;99.90;;;;;;5103957;28;20179;-68
2021/08/07 10:47:35;;;;;;;2.90;1.43;;;22.40;99.90;;;;;;5110354;28;20189;-68
2021/08/07 10:50:36;;;;;;;2.60;1.50;;;23.40;99.90;;;;;;5111842;28;20344;-68
2021/08/07 10:53:07;;;;;;;4.50;1.30;;;24.10;99.90;;;;;;5110242;28;20194;-68
2021/08/07 10:55:49;;;;;;;6.07;1.53;;;24.70;99.90;;;;;;5101342;28;20186;-67
2021/08/07 10:58:42;;;;;;;2.47;1.43;;;24.40;99.90;;;;;;5110738;28;20196;-69
2021/08/07 11:01:30;;;;;;;5.10;1.67;;;24.20;99.90;;;;;;5113465;28;20177;-68
2021/08/07 11:04:11;;;;;;;1.90;1.10;;;23.80;99.90;;;;;;5106248;28;20180;-67
2021/08/07 11:06:56;;;;;;;1.70;1.10;;;22.70;99.90;;;;;;5113315;28;20207;-66
2021/08/07 11:09:28;;;;;;;2.97;1.30;;;22.50;99.90;;;;;;5100480;28;20184;-67
2021/08/07 11:12:30;;;;;;;1.63;1.40;;;22.40;99.90;;;;;;5104854;28;20179;-68
2021/08/07 11:15:08;;;;;;;3.63;1.40;;;22.00;99.90;;;;;;5107359;27;20183;-67
2021/08/07 11:17:49;;;;;;;3.17;1.67;;;22.10;99.90;;;;;;5103955;28;20218;-67
2021/08/07 11:20:39;;;;;;;1.47;1.37;;;23.00;99.90;;;;;;5119150;27;20191;-67
2021/08/07 11:23:35;;;;;;;3.77;1.20;;;23.80;99.90;;;;;;5103001;28;20323;-69
2021/08/07 11:26:06;;;;;;;3.43;1.30;;;24.30;99.90;;;;;;5106228;28;20181;-68
2021/08/07 11:28:50;;;;;;;4.77;1.50;;;24.60;99.90;;;;;;5100634;28;20186;-69
2021/08/07 11:31:23;;;;;;;2.93;1.03;;;24.60;99.90;;;;;;5105763;28;20370;-68
2021/08/07 11:34:20;;;;;;;2.30;1.30;;;24.20;99.90;;;;;;5116726;28;20386;-67
2021/08/07 11:37:24;;;;;;;5.40;1.50;;;24.00;99.90;;;;;;5102251;28;20229;-68
2021/08/07 11:40:18;;;;;;;3.23;1.40;;;23.20;99.90;;;;;;5114263;28;20195;-68
2021/08/07 11:42:54;;;;;;;2.10;1.40;;;22.70;99.90;;;;;;5103253;28;20229;-68
2021/08/07 11:45:23;;;;;;;1.57;1.30;;;22.50;99.90;;;;;;5101301;28;20176;-67
2021/08/07 11:47:54;;;;;;;2.73;1.33;;;22.70;99.90;;;;;;5108234;28;20175;-68
2021/08/07 11:50:23;;;;;;;5.43;1.43;;;23.60;99.90;;;;;;5109130;28;20437;-68
2021/08/07 11:52:52;;;;;;;2.27;1.47;;;24.40;99.90;;;;;;5094749;28;20188;-68
2021/08/07 11:55:22;;;;;;;4.07;1.13;;;24.60;99.90;;;;;;5110468;28;20234;-68
2021/08/07 11:58:07;;;;;;;2.33;1.30;;;24.90;99.90;;;;;;5106621;28;20251;-67
2021/08/07 12:00:37;;;;;;;2.63;1.30;;;24.90;99.90;;;;;;5120914;27;20236;-68
2021/08/07 12:03:10;;;;;;;2.33;1.60;;;25.10;99.90;;;;;;5110599;28;20194;-68
2021/08/07 12:05:48;;;;;;;2.13;1.30;;;25.00;99.90;;;;;;5119541;28;20201;-68
2021/08/07 12:08:17;;;;;;;3.80;1.43;;;24.50;99.90;;;;;;5109317;28;20173;-68
2021/08/07 12:10:48;;;;;;;2.10;1.30;;;24.30;99.90;;;;;;5105547;28;20323;-67
2021/08/07 12:13:28;;;;;;;2.33;1.37;;;24.40;99.90;;;;;;5117506;27;20466;-68
2021/08/07 12:16:00;;;;;;;3.73;1.20;;;24.00;99.90;;;;;;5110423;28;20259;-67
2021/08/07 12:18:41;;;;;;;3.97;1.43;;;23.60;99.90;;;;;;5110025;28;20200;-67
2021/08/07 12:21:10;;;;;;;3.13;1.37;;;23.20;99.90;;;;;;5119247;28;20183;-68
2021/08/07 12:23:44;;;;;;;1.37;1.27;;;23.00;99.90;;;;;;5111876;28;20214;-68
2021/08/07 12:26:13;;;;;;;6.07;1.40;;;23.40;99.90;;;;;;5114978;28;20185;-67
2021/08/07 12:28:42;;;;;;;3.47;1.50;;;23.70;99.90;;;;;;5118764;28;20233;-67
2021/08/07 12:31:11;;;;;;;3.57;1.57;;;23.70;99.90;;;;;;5114198;28;20182;-67
2021/08/07 12:33:44;;;;;;;1.97;1.40;;;23.80;99.90;;;;;;5108167;28;20186;-67
2021/08/07 12:36:14;;;;;;;1.90;1.20;;;24.10;99.90;;;;;;5108255;28;20468;-68
2021/08/07 12:38:44;;;;;;;3.73;1.30;;;23.80;99.90;;;;;;5106041;28;20258;-66
2021/08/07 12:41:14;;;;;;;1.53;1.40;;;23.50;99.90;;;;;;5117387;27;20171;-67
2021/08/07 12:43:43;;;;;;;1.40;1.30;;;23.10;99.90;;;;;;5120142;28;20182;-67
2021/08/07 12:46:13;;;;;;;1.90;1.10;;;22.90;99.90;;;;;;5128529;27;20186;-68
2021/08/07 12:48:52;;;;;;;2.10;1.30;;;22.80;99.90;;;;;;5120272;28;20261;-67
2021/08/07 12:51:22;;;;;;;2.37;1.27;;;22.60;99.90;;;;;;5122076;27;20181;-67
2021/08/07 12:53:51;;;;;;;3.43;1.40;;;22.60;99.90;;;;;;5115912;28;20182;-67
2021/08/07 12:56:20;;;;;;;2.00;1.13;;;22.50;99.90;;;;;;5109958;28;20171;-67
2021/08/07 12:58:59;;;;;;;2.33;1.40;;;22.30;99.90;;;;;;5111714;28;20244;-66
2021/08/07 13:01:28;;;;;;;3.10;1.43;;;22.20;99.90;;;;;;5104947;28;20183;-67
2021/08/07 13:04:00;;;;;;;2.57;1.60;;;22.00;99.90;;;;;;5108293;28;20183;-68